Time;durP1;ratioP1;P1;durP2;ratioP2;P2;SDS_P1;SDS_P2;PMS_P1;PMS_P2;Temp;Humidity;BMP_temperature;BMP_pressure;BME280_temperature;BME280_humidity;BME280_pressure;Samples;Min_cycle;Max_cycle;Signal;HPM_P1;HPM_P2
2021/12/22 00:00:13;;;;;;;37.25;13.45;;;;;;;;;;5011170;28;20042;-61
2021/12/22 00:02:46;;;;;;;24.35;7.03;;;;;;;;;;5007619;28;20041;-61
2021/12/22 00:05:17;;;;;;;19.73;3.40;;;;;;;;;;5010242;28;20107;-60
2021/12/22 00:07:42;;;;;;;12.55;2.92;;;;;;;;;;5008977;28;20046;-59
2021/12/22 00:10:09;;;;;;;5.55;2.22;;;;;;;;;;5010267;28;22705;-60
2021/12/22 00:12:34;;;;;;;6.82;2.42;;;;;;;;;;5006712;28;20072;-60
2021/12/22 00:15:00;;;;;;;7.43;1.83;;;;;;;;;;5009700;28;20121;-60
2021/12/22 00:17:26;;;;;;;7.93;2.05;;;;;;;;;;5009906;28;20073;-60
2021/12/22 00:19:52;;;;;;;5.82;2.10;;;;;;;;;;4992188;28;20050;-61
2021/12/22 00:22:18;;;;;;;7.40;2.03;;;;;;;;;;5008854;28;20044;-60
2021/12/22 00:24:44;;;;;;;8.60;2.35;;;;;;;;;;5010602;28;20048;-61
2021/12/22 00:27:09;;;;;;;7.43;2.15;;;;;;;;;;5012773;28;20762;-61
2021/12/22 00:29:35;;;;;;;9.63;3.20;;;;;;;;;;5010639;28;20065;-61
2021/12/22 00:32:10;;;;;;;9.85;2.85;;;;;;;;;;5011822;28;20053;-61
2021/12/22 00:34:51;;;;;;;7.30;2.38;;;;;;;;;;5011867;28;20239;-61
2021/12/22 00:37:19;;;;;;;11.52;2.90;;;;;;;;;;5013101;28;20051;-60
2021/12/22 00:39:45;;;;;;;5.70;2.20;;;;;;;;;;5013156;28;20406;-62
2021/12/22 00:42:12;;;;;;;10.73;2.97;;;;;;;;;;5009889;28;20513;-62
2021/12/22 00:44:38;;;;;;;5.30;2.22;;;;;;;;;;5007493;28;20042;-61
2021/12/22 00:47:04;;;;;;;7.22;2.53;;;;;;;;;;4988983;28;20041;-62
2021/12/22 00:49:30;;;;;;;16.92;2.63;;;;;;;;;;5006447;28;20038;-61
2021/12/22 00:51:56;;;;;;;6.80;2.78;;;;;;;;;;4989535;28;20054;-61
2021/12/22 00:54:22;;;;;;;9.38;2.60;;;;;;;;;;5008290;28;20030;-59
2021/12/22 00:56:48;;;;;;;6.60;2.20;;;;;;;;;;5009135;28;20042;-60
2021/12/22 00:59:16;;;;;;;6.55;2.50;;;;;;;;;;5009310;28;21780;-61
2021/12/22 01:01:41;;;;;;;6.03;2.67;;;;;;;;;;5010655;28;20041;-60
2021/12/22 01:04:07;;;;;;;7.55;2.63;;;;;;;;;;5009558;28;20107;-61
2021/12/22 01:06:35;;;;;;;6.30;2.70;;;;;;;;;;5010733;28;20586;-60
2021/12/22 01:09:01;;;;;;;7.85;2.92;;;;;;;;;;5011079;28;20113;-60
2021/12/22 01:11:27;;;;;;;8.88;3.13;;;;;;;;;;5011182;28;20050;-61
2021/12/22 01:13:53;;;;;;;8.90;3.08;;;;;;;;;;5010986;28;20382;-61
2021/12/22 01:16:19;;;;;;;10.60;3.17;;;;;;;;;;5009980;28;20044;-60
2021/12/22 01:18:44;;;;;;;15.55;3.25;;;;;;;;;;5009644;28;20053;-61
2021/12/22 01:21:20;;;;;;;6.82;3.05;;;;;;;;;;5009911;28;20044;-61
2021/12/22 01:26:52;;;;;;;7.93;3.33;;;;;;;;;;4933778;29;20051;-61
2021/12/22 01:29:18;;;;;;;8.25;2.75;;;;;;;;;;4976022;28;20065;-61
2021/12/22 01:31:44;;;;;;;5.50;2.50;;;;;;;;;;5008569;28;20137;-60
2021/12/22 01:34:10;;;;;;;9.68;2.95;;;;;;;;;;5010531;28;20037;-59
2021/12/22 01:36:36;;;;;;;10.00;2.95;;;;;;;;;;5012402;28;20042;-60
2021/12/22 01:39:03;;;;;;;6.40;2.33;;;;;;;;;;5010505;28;20509;-59
2021/12/22 01:41:29;;;;;;;14.57;2.95;;;;;;;;;;4993067;28;20482;-59
2021/12/22 01:43:55;;;;;;;9.48;2.95;;;;;;;;;;5011448;28;20045;-60
2021/12/22 01:49:11;;;;;;;8.50;2.92;;;;;;;;;;5012020;28;20051;-59
2021/12/22 01:51:56;;;;;;;7.05;2.67;;;;;;;;;;5010193;28;20042;-60
2021/12/22 01:54:40;;;;;;;10.40;2.63;;;;;;;;;;5011204;28;20050;-59
2021/12/22 01:57:10;;;;;;;9.93;3.22;;;;;;;;;;5012684;28;20091;-60
2021/12/22 01:59:37;;;;;;;14.55;2.95;;;;;;;;;;5013284;28;20118;-60
2021/12/22 02:02:04;;;;;;;5.40;2.40;;;;;;;;;;5016117;28;20037;-60
2021/12/22 02:04:30;;;;;;;10.35;3.13;;;;;;;;;;5013985;28;20042;-61
2021/12/22 02:06:56;;;;;;;8.68;2.70;;;;;;;;;;4995915;28;20092;-60
2021/12/22 02:12:10;;;;;;;6.05;2.65;;;;;;;;;;4977105;28;20099;-59
2021/12/22 02:14:36;;;;;;;11.35;2.70;;;;;;;;;;5011643;28;20437;-60
2021/12/22 02:17:06;;;;;;;6.97;2.97;;;;;;;;;;5015160;28;20084;-60
2021/12/22 02:19:36;;;;;;;7.35;2.70;;;;;;;;;;5014278;28;20034;-60
2021/12/22 02:22:07;;;;;;;7.75;2.88;;;;;;;;;;5015669;28;20108;-63
2021/12/22 02:24:33;;;;;;;10.35;3.50;;;;;;;;;;5006383;28;20422;-60
2021/12/22 02:27:05;;;;;;;6.93;3.17;;;;;;;;;;4997234;28;20382;-63
2021/12/22 02:29:39;;;;;;;9.43;3.70;;;;;;;;;;5012353;28;21774;-61
2021/12/22 02:32:15;;;;;;;12.48;3.40;;;;;;;;;;5012554;28;20426;-61
2021/12/22 02:34:44;;;;;;;13.77;3.63;;;;;;;;;;5010561;28;20046;-60
2021/12/22 02:37:13;;;;;;;14.32;2.97;;;;;;;;;;5011750;28;20533;-61
2021/12/22 02:39:59;;;;;;;10.27;3.35;;;;;;;;;;5009960;28;20033;-61
2021/12/22 02:42:32;;;;;;;10.30;3.65;;;;;;;;;;4995304;28;20793;-62
2021/12/22 02:45:05;;;;;;;13.55;2.97;;;;;;;;;;5009934;28;20073;-61
2021/12/22 02:47:31;;;;;;;7.57;2.80;;;;;;;;;;4999171;28;20068;-60
2021/12/22 02:49:56;;;;;;;8.63;3.13;;;;;;;;;;5009956;28;20129;-60
2021/12/22 02:52:29;;;;;;;8.57;2.83;;;;;;;;;;4990950;28;20600;-61
2021/12/22 02:54:56;;;;;;;7.15;2.75;;;;;;;;;;5010698;28;20048;-61
2021/12/22 02:57:30;;;;;;;11.32;2.70;;;;;;;;;;5010472;28;20030;-61
2021/12/22 03:02:46;;;;;;;5.28;2.72;;;;;;;;;;5009109;28;20037;-60
2021/12/22 03:05:12;;;;;;;12.85;3.05;;;;;;;;;;4986459;28;20045;-61
2021/12/22 03:07:38;;;;;;;10.43;2.67;;;;;;;;;;5010500;28;20033;-61
2021/12/22 03:10:06;;;;;;;18.25;3.15;;;;;;;;;;5009789;28;20494;-61
2021/12/22 03:12:35;;;;;;;10.38;2.90;;;;;;;;;;5009586;28;20034;-62
2021/12/22 03:15:02;;;;;;;7.55;2.72;;;;;;;;;;5011818;28;20690;-61
2021/12/22 03:17:27;;;;;;;5.05;2.17;;;;;;;;;;5010858;28;20081;-61
2021/12/22 03:19:54;;;;;;;6.68;2.00;;;;;;;;;;5008848;28;20212;-61
2021/12/22 03:22:21;;;;;;;12.50;2.40;;;;;;;;;;4996226;28;20042;-61
2021/12/22 03:24:48;;;;;;;6.20;2.35;;;;;;;;;;5009175;28;20069;-61
2021/12/22 03:27:15;;;;;;;7.07;2.47;;;;;;;;;;5010335;28;20046;-61
2021/12/22 03:29:41;;;;;;;4.93;2.15;;;;;;;;;;5009523;28;20060;-61
2021/12/22 03:32:07;;;;;;;8.52;1.90;;;;;;;;;;5010739;28;20061;-61
2021/12/22 03:34:34;;;;;;;8.95;2.25;;;;;;;;;;5009027;28;20033;-60
2021/12/22 03:37:00;;;;;;;3.67;1.77;;;;;;;;;;4991846;28;20038;-61
2021/12/22 03:39:27;;;;;;;4.82;1.92;;;;;;;;;;5009743;28;20504;-61
2021/12/22 03:41:53;;;;;;;4.72;1.92;;;;;;;;;;5011407;28;20061;-61
2021/12/22 03:44:19;;;;;;;7.38;1.88;;;;;;;;;;5010214;28;20684;-61
2021/12/22 03:46:45;;;;;;;3.58;1.50;;;;;;;;;;5013192;28;20073;-60
2021/12/22 03:49:11;;;;;;;3.88;1.27;;;;;;;;;;5000215;28;20084;-61
2021/12/22 03:51:37;;;;;;;5.68;1.60;;;;;;;;;;5011938;28;20063;-60
2021/12/22 03:54:06;;;;;;;7.47;1.60;;;;;;;;;;5011026;28;20468;-59
2021/12/22 03:56:32;;;;;;;6.10;1.90;;;;;;;;;;4991999;28;20041;-59
2021/12/22 03:58:58;;;;;;;8.13;1.58;;;;;;;;;;5011157;28;20049;-59
2021/12/22 04:01:24;;;;;;;6.28;1.75;;;;;;;;;;5008729;28;20052;-59
2021/12/22 04:03:54;;;;;;;5.45;1.50;;;;;;;;;;5010413;28;20041;-60
2021/12/22 04:06:20;;;;;;;6.70;1.63;;;;;;;;;;5008713;28;20037;-59
2021/12/22 04:08:46;;;;;;;5.85;1.70;;;;;;;;;;4975201;28;20049;-60
2021/12/22 04:11:12;;;;;;;5.72;1.80;;;;;;;;;;5009375;28;20049;-59
2021/12/22 04:13:38;;;;;;;9.57;2.00;;;;;;;;;;5008030;28;20041;-59
2021/12/22 04:16:03;;;;;;;5.53;1.85;;;;;;;;;;5008651;28;20087;-60
2021/12/22 04:18:29;;;;;;;4.63;1.42;;;;;;;;;;5007789;28;20052;-60
2021/12/22 04:20:55;;;;;;;6.15;1.67;;;;;;;;;;5007249;28;20651;-60
2021/12/22 04:23:21;;;;;;;4.65;1.70;;;;;;;;;;5008305;28;20040;-60
2021/12/22 04:25:47;;;;;;;5.72;1.75;;;;;;;;;;4991972;28;20409;-60
2021/12/22 04:28:13;;;;;;;4.07;1.92;;;;;;;;;;5010603;28;20045;-60
2021/12/22 04:30:41;;;;;;;6.95;2.40;;;;;;;;;;5010299;28;20107;-61
2021/12/22 04:33:07;;;;;;;6.50;1.88;;;;;;;;;;5010187;28;20520;-60
2021/12/22 04:35:34;;;;;;;8.57;2.30;;;;;;;;;;5008979;28;20494;-60
2021/12/22 04:38:00;;;;;;;8.98;2.50;;;;;;;;;;5010316;28;20037;-60
2021/12/22 04:40:26;;;;;;;7.43;2.63;;;;;;;;;;5009995;28;21147;-60
2021/12/22 04:42:52;;;;;;;4.00;1.65;;;;;;;;;;5009986;28;20052;-61
2021/12/22 04:45:18;;;;;;;6.55;2.03;;;;;;;;;;5010432;28;20030;-59
2021/12/22 04:47:45;;;;;;;8.25;2.38;;;;;;;;;;4981905;28;20747;-59
2021/12/22 04:50:15;;;;;;;4.97;1.88;;;;;;;;;;4969838;28;20070;-60
2021/12/22 04:52:52;;;;;;;8.05;1.80;;;;;;;;;;4970077;28;20068;-59
2021/12/22 04:55:18;;;;;;;6.10;2.55;;;;;;;;;;4975549;28;20164;-60
2021/12/22 04:57:44;;;;;;;6.85;2.40;;;;;;;;;;4970965;28;20044;-60
2021/12/22 05:00:11;;;;;;;4.38;1.88;;;;;;;;;;4969976;28;20495;-60
2021/12/22 05:02:37;;;;;;;4.85;1.90;;;;;;;;;;4968345;28;20150;-59
2021/12/22 05:05:03;;;;;;;5.55;1.98;;;;;;;;;;4970283;28;20543;-60
2021/12/22 05:07:29;;;;;;;6.55;2.50;;;;;;;;;;4968739;28;20038;-60
2021/12/22 05:09:55;;;;;;;6.35;2.17;;;;;;;;;;4970430;28;20054;-59
2021/12/22 05:12:21;;;;;;;8.75;2.17;;;;;;;;;;4969695;28;20741;-60
2021/12/22 05:14:50;;;;;;;4.43;2.08;;;;;;;;;;4970278;28;20155;-60
2021/12/22 05:17:37;;;;;;;5.85;2.30;;;;;;;;;;4969931;28;20046;-61
2021/12/22 05:20:03;;;;;;;9.27;2.45;;;;;;;;;;4969219;28;20035;-61
2021/12/22 05:22:29;;;;;;;6.78;2.17;;;;;;;;;;4967655;28;20049;-61
2021/12/22 05:24:57;;;;;;;6.32;2.85;;;;;;;;;;4973622;28;20038;-61
2021/12/22 05:27:23;;;;;;;6.70;2.35;;;;;;;;;;4968127;28;20089;-60
2021/12/22 05:29:49;;;;;;;6.90;2.13;;;;;;;;;;4967576;28;20051;-61
2021/12/22 05:32:15;;;;;;;11.30;2.53;;;;;;;;;;4968375;28;20046;-61
2021/12/22 05:34:41;;;;;;;7.72;2.83;;;;;;;;;;4966545;28;20121;-61
2021/12/22 05:37:07;;;;;;;8.25;2.45;;;;;;;;;;4968251;28;20042;-60
2021/12/22 05:39:33;;;;;;;9.05;2.83;;;;;;;;;;4969423;28;20547;-60
2021/12/22 05:42:01;;;;;;;11.23;2.63;;;;;;;;;;4969915;28;21789;-61
2021/12/22 05:44:27;;;;;;;8.27;2.60;;;;;;;;;;4967833;28;20043;-60
2021/12/22 05:46:53;;;;;;;6.47;2.88;;;;;;;;;;4985825;28;20521;-61
2021/12/22 05:49:19;;;;;;;8.27;2.42;;;;;;;;;;5007320;28;20517;-60
2021/12/22 05:51:45;;;;;;;7.85;2.90;;;;;;;;;;5009217;28;20136;-61
2021/12/22 05:54:11;;;;;;;6.38;2.30;;;;;;;;;;5007079;28;20491;-61
2021/12/22 05:56:36;;;;;;;6.72;2.60;;;;;;;;;;5007455;28;20045;-61
2021/12/22 05:59:02;;;;;;;6.47;2.65;;;;;;;;;;4989233;28;20029;-61
2021/12/22 06:01:30;;;;;;;4.82;2.38;;;;;;;;;;5006730;28;20045;-61
2021/12/22 06:03:56;;;;;;;9.98;2.42;;;;;;;;;;5008016;28;20038;-61
2021/12/22 06:06:22;;;;;;;6.57;2.92;;;;;;;;;;5007983;28;20038;-60
2021/12/22 06:08:48;;;;;;;11.32;4.70;;;;;;;;;;5008438;28;20049;-60
2021/12/22 06:11:13;;;;;;;9.43;3.65;;;;;;;;;;5008319;28;20050;-61
2021/12/22 06:13:39;;;;;;;6.05;2.53;;;;;;;;;;5005090;28;20049;-61
2021/12/22 06:16:08;;;;;;;7.03;2.70;;;;;;;;;;5008298;28;20089;-61
2021/12/22 06:18:41;;;;;;;5.45;2.60;;;;;;;;;;5008570;28;20552;-60
2021/12/22 06:21:06;;;;;;;5.93;2.78;;;;;;;;;;5012356;28;20041;-60
2021/12/22 06:23:32;;;;;;;7.35;3.10;;;;;;;;;;5011610;28;20045;-60
2021/12/22 06:25:58;;;;;;;6.25;3.05;;;;;;;;;;5012017;28;20073;-61
2021/12/22 06:28:24;;;;;;;5.68;2.80;;;;;;;;;;4990501;28;20088;-61
2021/12/22 06:30:50;;;;;;;5.43;2.13;;;;;;;;;;5012524;28;20042;-60
2021/12/22 06:33:15;;;;;;;7.82;2.90;;;;;;;;;;4991622;28;20034;-60
2021/12/22 06:35:41;;;;;;;7.03;3.55;;;;;;;;;;5010518;28;20029;-58
2021/12/22 06:38:07;;;;;;;8.80;2.95;;;;;;;;;;5012182;28;20049;-60
2021/12/22 06:40:33;;;;;;;5.47;2.55;;;;;;;;;;5009550;28;20034;-60
2021/12/22 06:42:59;;;;;;;6.38;3.25;;;;;;;;;;5011443;28;20060;-61
2021/12/22 06:45:25;;;;;;;8.90;2.55;;;;;;;;;;5011370;28;20759;-60
2021/12/22 06:47:52;;;;;;;7.07;2.55;;;;;;;;;;5009914;28;20375;-61
2021/12/22 06:50:18;;;;;;;4.88;2.60;;;;;;;;;;4993302;28;20158;-60
2021/12/22 06:52:44;;;;;;;6.82;2.88;;;;;;;;;;5010787;28;20042;-60
2021/12/22 06:55:10;;;;;;;8.27;2.67;;;;;;;;;;5011486;28;20045;-60
2021/12/22 06:57:36;;;;;;;5.35;2.72;;;;;;;;;;4991898;28;20045;-59
2021/12/22 07:00:06;;;;;;;6.90;2.85;;;;;;;;;;5011787;28;20052;-60
2021/12/22 07:02:37;;;;;;;8.98;3.30;;;;;;;;;;5011214;28;20037;-59
2021/12/22 07:05:04;;;;;;;5.82;2.63;;;;;;;;;;5011061;28;20081;-59
2021/12/22 07:07:30;;;;;;;10.95;3.15;;;;;;;;;;5009695;28;20453;-60
2021/12/22 07:09:56;;;;;;;6.57;2.90;;;;;;;;;;4991324;28;20045;-60
2021/12/22 07:12:22;;;;;;;6.70;3.10;;;;;;;;;;5007944;28;20052;-59
2021/12/22 07:14:48;;;;;;;7.05;2.95;;;;;;;;;;5010371;28;20037;-60
2021/12/22 07:17:13;;;;;;;6.07;3.00;;;;;;;;;;5010955;28;20034;-60
2021/12/22 07:19:39;;;;;;;4.70;2.38;;;;;;;;;;5009267;28;20112;-60
2021/12/22 07:22:06;;;;;;;8.38;2.53;;;;;;;;;;5009788;28;20548;-60
2021/12/22 07:24:32;;;;;;;5.78;2.88;;;;;;;;;;4990424;28;20610;-61
2021/12/22 07:26:58;;;;;;;6.70;3.40;;;;;;;;;;5011276;28;20060;-61
2021/12/22 07:29:24;;;;;;;4.72;2.65;;;;;;;;;;5009546;28;20077;-61
2021/12/22 07:31:50;;;;;;;7.35;3.15;;;;;;;;;;5011426;28;20049;-61
2021/12/22 07:34:19;;;;;;;11.30;2.40;;;;;;;;;;5010417;28;20065;-61
2021/12/22 07:36:55;;;;;;;9.07;3.03;;;;;;;;;;5011302;28;20037;-61
2021/12/22 07:39:21;;;;;;;5.57;2.63;;;;;;;;;;5009627;28;20652;-61
2021/12/22 07:41:47;;;;;;;7.35;2.80;;;;;;;;;;5010988;28;20034;-61
2021/12/22 07:44:12;;;;;;;5.32;2.55;;;;;;;;;;5011193;28;20126;-60
2021/12/22 07:46:38;;;;;;;6.97;2.70;;;;;;;;;;4994079;28;20069;-60
2021/12/22 07:49:04;;;;;;;6.68;2.70;;;;;;;;;;5011354;28;20048;-61
2021/12/22 07:51:30;;;;;;;7.38;2.55;;;;;;;;;;5012203;28;20050;-60
2021/12/22 07:53:56;;;;;;;8.20;3.00;;;;;;;;;;5009295;28;20056;-61
2021/12/22 07:56:21;;;;;;;5.65;2.75;;;;;;;;;;5010308;28;20438;-61
2021/12/22 07:58:48;;;;;;;10.65;2.72;;;;;;;;;;5009849;28;20068;-61
2021/12/22 08:01:14;;;;;;;7.25;2.53;;;;;;;;;;5010324;28;20038;-61
2021/12/22 08:03:40;;;;;;;5.63;2.40;;;;;;;;;;5010127;28;20038;-61
2021/12/22 08:06:06;;;;;;;5.25;2.53;;;;;;;;;;5011817;28;21871;-60
2021/12/22 08:08:31;;;;;;;6.50;2.75;;;;;;;;;;5012422;28;20042;-60
2021/12/22 08:10:57;;;;;;;6.45;2.85;;;;;;;;;;5010781;28;20123;-60
2021/12/22 08:13:23;;;;;;;5.78;2.72;;;;;;;;;;5009492;28;20030;-60
2021/12/22 08:15:49;;;;;;;8.07;2.63;;;;;;;;;;5014097;28;20042;-60
2021/12/22 08:18:15;;;;;;;5.90;3.22;;;;;;;;;;5013632;28;20037;-60
2021/12/22 08:20:40;;;;;;;8.10;3.40;;;;;;;;;;5011650;28;20608;-60
2021/12/22 08:23:06;;;;;;;13.48;3.70;;;;;;;;;;5012200;28;20564;-60
2021/12/22 08:25:32;;;;;;;7.25;3.58;;;;;;;;;;5010322;28;20034;-60
2021/12/22 08:27:58;;;;;;;10.32;3.83;;;;;;;;;;5010528;28;20108;-61
2021/12/22 08:30:24;;;;;;;8.82;3.53;;;;;;;;;;5009419;28;20045;-60
2021/12/22 08:32:50;;;;;;;7.22;3.65;;;;;;;;;;5008869;28;20063;-60
2021/12/22 08:35:17;;;;;;;8.73;3.65;;;;;;;;;;5009610;28;20038;-60
2021/12/22 08:40:28;;;;;;;8.00;3.83;;;;;;;;;;5007329;28;20049;-60
2021/12/22 08:42:54;;;;;;;7.63;3.28;;;;;;;;;;5008666;28;20037;-60
2021/12/22 08:45:20;;;;;;;7.53;3.38;;;;;;;;;;5006363;28;20073;-60
2021/12/22 08:47:46;;;;;;;5.53;3.13;;;;;;;;;;5006742;28;20132;-60
2021/12/22 08:50:13;;;;;;;6.38;3.75;;;;;;;;;;5007267;28;20459;-60
2021/12/22 08:52:39;;;;;;;5.68;3.45;;;;;;;;;;5007424;28;20041;-59
2021/12/22 08:55:05;;;;;;;8.15;3.78;;;;;;;;;;5009309;28;20096;-60
2021/12/22 08:57:31;;;;;;;6.38;3.17;;;;;;;;;;5009234;28;20052;-59
2021/12/22 08:59:57;;;;;;;8.75;3.25;;;;;;;;;;5008573;28;20895;-59
2021/12/22 09:02:23;;;;;;;13.10;3.88;;;;;;;;;;5007130;28;20034;-60
2021/12/22 09:04:48;;;;;;;13.82;4.70;;;;;;;;;;5008247;28;20056;-60
2021/12/22 09:07:14;;;;;;;10.93;4.03;;;;;;;;;;5008790;28;20128;-59
2021/12/22 09:09:40;;;;;;;10.60;4.07;;;;;;;;;;5006560;28;20064;-59
2021/12/22 09:12:07;;;;;;;6.28;3.55;;;;;;;;;;5008423;28;20138;-60
2021/12/22 09:14:33;;;;;;;7.38;3.53;;;;;;;;;;5006948;28;20390;-60
2021/12/22 09:16:58;;;;;;;6.38;3.35;;;;;;;;;;5008291;28;20034;-60
2021/12/22 09:19:24;;;;;;;11.30;3.80;;;;;;;;;;5008998;28;20088;-61
2021/12/22 09:21:51;;;;;;;8.13;3.42;;;;;;;;;;5008867;28;20045;-60
2021/12/22 09:24:17;;;;;;;5.82;3.45;;;;;;;;;;5009470;28;20096;-60
2021/12/22 09:26:43;;;;;;;8.38;3.83;;;;;;;;;;5007916;28;20568;-61
2021/12/22 09:29:09;;;;;;;16.83;3.97;;;;;;;;;;4990967;28;20038;-59
2021/12/22 09:31:35;;;;;;;11.35;4.00;;;;;;;;;;5008062;28;20095;-59
2021/12/22 09:34:01;;;;;;;6.32;3.70;;;;;;;;;;5010173;28;20734;-60
2021/12/22 09:36:27;;;;;;;6.95;3.45;;;;;;;;;;5008215;28;20573;-60
2021/12/22 09:38:52;;;;;;;9.73;3.63;;;;;;;;;;5008034;28;20453;-60
2021/12/22 09:41:18;;;;;;;7.15;3.67;;;;;;;;;;5007147;28;20046;-59
2021/12/22 09:43:44;;;;;;;6.43;3.47;;;;;;;;;;5007487;28;20046;-61
2021/12/22 09:46:14;;;;;;;5.63;3.25;;;;;;;;;;5006913;28;20049;-60
2021/12/22 09:53:35;;;;;;;5.85;3.38;;;;;;;;;;5007114;28;20110;-60
2021/12/22 09:56:01;;;;;;;8.65;3.67;;;;;;;;;;5011612;28;20029;-60
2021/12/22 09:58:27;;;;;;;7.65;4.40;;;;;;;;;;5011476;28;20084;-60
2021/12/22 10:00:53;;;;;;;14.02;4.97;;;;;;;;;;5001270;28;20034;-60
2021/12/22 10:03:20;;;;;;;8.18;3.85;;;;;;;;;;5010996;28;20077;-58
2021/12/22 10:05:46;;;;;;;7.75;3.45;;;;;;;;;;5011825;28;20517;-59
2021/12/22 10:08:12;;;;;;;6.68;3.67;;;;;;;;;;5011764;28;20125;-60
2021/12/22 10:10:40;;;;;;;5.25;2.97;;;;;;;;;;5011067;28;20092;-60
2021/12/22 10:13:26;;;;;;;6.35;3.35;;;;;;;;;;5012157;28;20030;-59
2021/12/22 10:15:52;;;;;;;10.93;3.13;;;;;;;;;;5011381;28;20486;-60
2021/12/22 10:18:19;;;;;;;6.38;3.00;;;;;;;;;;5010678;28;20048;-59
2021/12/22 10:20:46;;;;;;;13.65;3.70;;;;;;;;;;5010824;28;20041;-59
2021/12/22 10:23:31;;;;;;;7.57;3.08;;;;;;;;;;5010663;28;20045;-60
2021/12/22 10:25:58;;;;;;;5.75;3.33;;;;;;;;;;5010603;28;20163;-59
2021/12/22 10:28:25;;;;;;;7.25;3.33;;;;;;;;;;5011346;28;20038;-60
2021/12/22 10:30:56;;;;;;;7.00;3.60;;;;;;;;;;5011101;28;20050;-60
2021/12/22 10:33:23;;;;;;;12.60;4.80;;;;;;;;;;5009526;28;20041;-59
2021/12/22 10:35:53;;;;;;;7.95;3.67;;;;;;;;;;5010254;28;20425;-60
2021/12/22 10:38:21;;;;;;;10.52;3.10;;;;;;;;;;5009309;28;20075;-59
2021/12/22 10:40:51;;;;;;;11.38;4.22;;;;;;;;;;5011879;28;20038;-60
2021/12/22 10:43:22;;;;;;;9.80;3.33;;;;;;;;;;5011471;28;20056;-60
2021/12/22 10:45:51;;;;;;;8.68;4.40;;;;;;;;;;5010135;28;20042;-59
2021/12/22 10:51:21;;;;;;;;;;;;;;;;;;5010631;28;20560;-59
2021/12/22 10:53:48;;;;;;;7.05;3.67;;;;;;;;;;4994090;28;20065;-59
2021/12/22 10:56:22;;;;;;;7.57;4.40;;;;;;;;;;5011203;28;20041;-59
2021/12/22 10:58:58;;;;;;;7.95;4.30;;;;;;;;;;5011280;28;20533;-59
2021/12/22 11:01:23;;;;;;;6.88;3.65;;;;;;;;;;5011965;28;20069;-59
2021/12/22 11:03:54;;;;;;;13.20;3.95;;;;;;;;;;5010302;28;20517;-60
2021/12/22 11:06:22;;;;;;;11.50;4.38;;;;;;;;;;5008971;28;20111;-60
2021/12/22 11:08:52;;;;;;;11.30;4.80;;;;;;;;;;5010566;28;20049;-60
2021/12/22 11:11:18;;;;;;;7.20;4.35;;;;;;;;;;5009325;28;20045;-59
2021/12/22 11:13:44;;;;;;;10.68;4.57;;;;;;;;;;5011822;28;20513;-60
2021/12/22 11:16:13;;;;;;;9.80;5.32;;;;;;;;;;4999663;28;20041;-60
2021/12/22 11:18:39;;;;;;;9.25;5.30;;;;;;;;;;5010246;28;20034;-60
2021/12/22 11:21:23;;;;;;;8.10;4.97;;;;;;;;;;5012739;28;20065;-60
2021/12/22 11:23:48;;;;;;;;;;;;;;;;;;5010721;28;20127;-59
2021/12/22 11:26:14;;;;;;;12.60;4.53;;;;;;;;;;5011863;28;19917;-60
2021/12/22 11:28:43;;;;;;;12.52;4.93;;;;;;;;;;5012535;28;20131;-60
2021/12/22 11:31:10;;;;;;;7.75;4.47;;;;;;;;;;5012549;28;20168;-60
2021/12/22 11:33:38;;;;;;;10.60;5.25;;;;;;;;;;5009072;28;20038;-60
2021/12/22 11:36:06;;;;;;;10.20;5.97;;;;;;;;;;5010543;28;20132;-60
2021/12/22 11:38:33;;;;;;;13.00;4.88;;;;;;;;;;5010192;28;20745;-60
2021/12/22 11:41:14;;;;;;;11.88;6.35;;;;;;;;;;5010537;28;20038;-60
2021/12/22 11:43:41;;;;;;;11.43;5.70;;;;;;;;;;5009532;28;20045;-60
2021/12/22 11:46:07;;;;;;;9.38;5.80;;;;;;;;;;5011004;28;20061;-60
2021/12/22 11:48:34;;;;;;;11.32;5.60;;;;;;;;;;5007906;28;20042;-60
2021/12/22 11:51:00;;;;;;;9.73;5.97;;;;;;;;;;5009968;28;20141;-60
2021/12/22 11:53:26;;;;;;;14.27;7.10;;;;;;;;;;5009640;28;20033;-61
2021/12/22 11:55:57;;;;;;;11.73;6.72;;;;;;;;;;5010580;28;20080;-58
2021/12/22 11:58:27;;;;;;;10.27;6.63;;;;;;;;;;5010639;28;20061;-59
2021/12/22 12:00:56;;;;;;;14.90;7.45;;;;;;;;;;5010577;28;20723;-59
2021/12/22 12:03:36;;;;;;;15.30;5.70;;;;;;;;;;5008421;28;20443;-59
2021/12/22 12:06:14;;;;;;;11.13;7.07;;;;;;;;;;5009853;28;20041;-59
2021/12/22 12:08:44;;;;;;;12.95;6.88;;;;;;;;;;5008681;28;20049;-58
2021/12/22 12:11:15;;;;;;;12.45;6.30;;;;;;;;;;5010340;28;20050;-60
2021/12/22 12:21:57;;;;;;;10.80;6.18;;;;;;;;;;5009274;28;20044;-59
2021/12/22 12:24:32;;;;;;;11.63;6.78;;;;;;;;;;5008594;28;20037;-59
2021/12/22 12:26:58;;;;;;;11.52;6.50;;;;;;;;;;4995427;28;20063;-60
2021/12/22 12:29:42;;;;;;;9.27;5.68;;;;;;;;;;5010185;28;20453;-60
2021/12/22 12:32:08;;;;;;;9.88;6.57;;;;;;;;;;5008298;28;20068;-59
2021/12/22 12:34:38;;;;;;;11.25;6.40;;;;;;;;;;4991345;28;20034;-59
2021/12/22 12:37:06;;;;;;;9.68;5.75;;;;;;;;;;5009388;28;20041;-60
2021/12/22 12:39:50;;;;;;;9.13;6.40;;;;;;;;;;5007971;28;20034;-60
2021/12/22 12:42:16;;;;;;;12.05;6.82;;;;;;;;;;5008409;28;20738;-61
2021/12/22 12:44:42;;;;;;;10.30;5.72;;;;;;;;;;5008721;28;20065;-60
2021/12/22 12:47:34;;;;;;;10.35;5.97;;;;;;;;;;5009379;28;20049;-61
2021/12/22 12:50:18;;;;;;;14.90;6.00;;;;;;;;;;5002448;28;20502;-60
2021/12/22 12:52:44;;;;;;;9.48;5.25;;;;;;;;;;5008245;28;20065;-60
2021/12/22 12:55:12;;;;;;;9.98;5.80;;;;;;;;;;5009671;28;20387;-60
2021/12/22 12:57:38;;;;;;;8.40;5.43;;;;;;;;;;4996753;28;20052;-60
2021/12/22 13:00:06;;;;;;;11.30;5.38;;;;;;;;;;5007558;28;20981;-60
2021/12/22 13:02:33;;;;;;;11.40;6.63;;;;;;;;;;5006978;28;20040;-60
2021/12/22 13:05:11;;;;;;;8.32;5.25;;;;;;;;;;5007316;28;20033;-60
2021/12/22 13:07:38;;;;;;;7.78;5.55;;;;;;;;;;5008002;28;20038;-60
2021/12/22 13:10:12;;;;;;;7.60;5.03;;;;;;;;;;5008913;28;20048;-59
2021/12/22 13:17:58;;;;;;;7.82;4.85;;;;;;;;;;5007600;28;20044;-61
2021/12/22 13:20:28;;;;;;;7.35;4.85;;;;;;;;;;5007114;28;20042;-60
2021/12/22 13:22:55;;;;;;;8.60;5.68;;;;;;;;;;5007237;28;20416;-62
2021/12/22 13:25:25;;;;;;;7.57;5.20;;;;;;;;;;5007904;28;20124;-61
2021/12/22 13:27:52;;;;;;;10.43;5.35;;;;;;;;;;5008091;28;21003;-61
2021/12/22 13:30:23;;;;;;;9.43;5.70;;;;;;;;;;5006173;28;20044;-60
2021/12/22 13:32:57;;;;;;;9.98;5.68;;;;;;;;;;4991059;28;20026;-60
2021/12/22 13:35:31;;;;;;;9.68;4.95;;;;;;;;;;5007522;28;20194;-59
2021/12/22 13:37:57;;;;;;;11.20;4.93;;;;;;;;;;5009352;28;20045;-59
2021/12/22 13:40:38;;;;;;;6.65;4.03;;;;;;;;;;5008273;28;20395;-59
2021/12/22 13:43:04;;;;;;;7.22;4.43;;;;;;;;;;5007736;28;20044;-61
2021/12/22 13:45:30;;;;;;;9.27;5.28;;;;;;;;;;5007045;28;20474;-61
2021/12/22 13:47:56;;;;;;;9.73;4.55;;;;;;;;;;5007406;28;20167;-60
2021/12/22 13:50:22;;;;;;;8.00;5.50;;;;;;;;;;5007549;28;20044;-60
2021/12/22 13:52:48;;;;;;;8.80;4.72;;;;;;;;;;5007994;28;21958;-60
2021/12/22 13:55:14;;;;;;;9.23;5.40;;;;;;;;;;5010032;28;20029;-60
2021/12/22 13:57:40;;;;;;;8.75;4.80;;;;;;;;;;4988216;28;20121;-60
2021/12/22 14:00:06;;;;;;;14.38;5.45;;;;;;;;;;5006641;28;20994;-59
2021/12/22 14:02:33;;;;;;;8.63;5.00;;;;;;;;;;5005012;28;20044;-59
2021/12/22 14:05:17;;;;;;;7.50;4.78;;;;;;;;;;5007168;28;20046;-61
2021/12/22 14:07:43;;;;;;;6.85;3.97;;;;;;;;;;5007209;28;20045;-60
2021/12/22 14:10:13;;;;;;;10.00;4.72;;;;;;;;;;5008370;28;20522;-61
2021/12/22 14:12:40;;;;;;;14.02;5.93;;;;;;;;;;5007026;28;20124;-60
2021/12/22 14:15:07;;;;;;;9.43;5.53;;;;;;;;;;5008109;28;20045;-60
2021/12/22 14:17:45;;;;;;;9.50;4.95;;;;;;;;;;5008471;28;20030;-60
2021/12/22 14:20:21;;;;;;;5.80;4.35;;;;;;;;;;5008815;28;20072;-61
2021/12/22 14:22:48;;;;;;;8.55;4.82;;;;;;;;;;5006609;28;20034;-60
2021/12/22 14:25:25;;;;;;;9.18;5.57;;;;;;;;;;5009371;28;20040;-61
2021/12/22 14:27:52;;;;;;;7.18;4.22;;;;;;;;;;5007986;28;20042;-60
2021/12/22 14:30:21;;;;;;;3.45;2.30;;;;;;;;;;5006137;28;20037;-61
2021/12/22 14:33:12;;;;;;;5.82;4.20;;;;;;;;;;5007526;28;20069;-60
2021/12/22 14:35:40;;;;;;;9.70;5.13;;;;;;;;;;5005076;28;20101;-60
2021/12/22 14:38:10;;;;;;;8.15;5.32;;;;;;;;;;4991852;28;20042;-61
2021/12/22 14:40:37;;;;;;;8.15;5.05;;;;;;;;;;4991812;28;20044;-61
2021/12/22 14:43:10;;;;;;;8.00;5.07;;;;;;;;;;5010864;28;20037;-62
2021/12/22 14:45:47;;;;;;;12.63;4.30;;;;;;;;;;5011281;28;20041;-61
2021/12/22 14:48:18;;;;;;;7.90;4.15;;;;;;;;;;5009994;28;20048;-61
2021/12/22 14:50:58;;;;;;;7.93;4.90;;;;;;;;;;5010728;28;20128;-62
2021/12/22 14:53:33;;;;;;;6.38;4.20;;;;;;;;;;5009976;28;20073;-61
2021/12/22 14:55:59;;;;;;;6.70;4.07;;;;;;;;;;5010889;28;20063;-61
2021/12/22 14:58:28;;;;;;;7.38;4.85;;;;;;;;;;5011185;28;20052;-62
2021/12/22 15:00:54;;;;;;;18.15;5.65;;;;;;;;;;5011666;28;20038;-62
2021/12/22 15:03:20;;;;;;;6.68;4.45;;;;;;;;;;5010508;28;20041;-62
2021/12/22 15:05:56;;;;;;;9.18;5.60;;;;;;;;;;5010602;28;20041;-61
2021/12/22 15:08:23;;;;;;;7.60;4.53;;;;;;;;;;5010263;28;20041;-61
2021/12/22 15:10:50;;;;;;;10.20;5.85;;;;;;;;;;5012453;28;20110;-61
2021/12/22 15:13:15;;;;;;;12.55;6.60;;;;;;;;;;5011238;28;20053;-60
2021/12/22 15:15:41;;;;;;;9.35;4.82;;;;;;;;;;5009853;28;20867;-60
2021/12/22 15:18:07;;;;;;;10.23;4.90;;;;;;;;;;5011191;28;20037;-61
2021/12/22 15:20:33;;;;;;;9.27;5.80;;;;;;;;;;5009605;28;20044;-60